sensor_id;sensor_type;location;lat;lon;timestamp;P1;durP1;ratioP1;P2;durP2;ratioP2
55025;SDS011;40925;45.666;18.994;2022-11-21T00:01:12;54.97;;;26.88;;
55025;SDS011;40925;45.666;18.994;2022-11-21T00:03:40;51.15;;;25.33;;
55025;SDS011;40925;45.666;18.994;2022-11-21T00:06:07;50.35;;;25.73;;
55025;SDS011;40925;45.666;18.994;2022-11-21T00:08:32;47.15;;;23.58;;
55025;SDS011;40925;45.666;18.994;2022-11-21T00:10:58;46.42;;;22.80;;
55025;SDS011;40925;45.666;18.994;2022-11-21T00:13:25;47.53;;;23.25;;
55025;SDS011;40925;45.666;18.994;2022-11-21T00:15:50;48.20;;;22.92;;
55025;SDS011;40925;45.666;18.994;2022-11-21T00:18:16;47.70;;;23.23;;
55025;SDS011;40925;45.666;18.994;2022-11-21T00:20:42;49.25;;;24.17;;
55025;SDS011;40925;45.666;18.994;2022-11-21T00:23:08;48.90;;;23.98;;
55025;SDS011;40925;45.666;18.994;2022-11-21T00:25:35;47.85;;;22.90;;
55025;SDS011;40925;45.666;18.994;2022-11-21T00:28:02;50.55;;;24.60;;
55025;SDS011;40925;45.666;18.994;2022-11-21T00:30:29;49.90;;;23.98;;
55025;SDS011;40925;45.666;18.994;2022-11-21T00:32:56;49.78;;;23.73;;
55025;SDS011;40925;45.666;18.994;2022-11-21T00:35:22;54.67;;;25.30;;
55025;SDS011;40925;45.666;18.994;2022-11-21T00:37:48;55.97;;;24.73;;
55025;SDS011;40925;45.666;18.994;2022-11-21T00:40:15;51.63;;;24.88;;
55025;SDS011;40925;45.666;18.994;2022-11-21T00:42:41;52.10;;;24.92;;
55025;SDS011;40925;45.666;18.994;2022-11-21T00:45:07;51.92;;;24.95;;
55025;SDS011;40925;45.666;18.994;2022-11-21T00:47:33;53.22;;;24.73;;
55025;SDS011;40925;45.666;18.994;2022-11-21T00:49:59;54.33;;;25.25;;
55025;SDS011;40925;45.666;18.994;2022-11-21T00:52:25;59.15;;;26.00;;
55025;SDS011;40925;45.666;18.994;2022-11-21T00:54:50;50.65;;;25.02;;
55025;SDS011;40925;45.666;18.994;2022-11-21T00:57:16;56.00;;;25.70;;
55025;SDS011;40925;45.666;18.994;2022-11-21T00:59:42;51.95;;;24.30;;
55025;SDS011;40925;45.666;18.994;2022-11-21T01:02:08;54.25;;;24.63;;
55025;SDS011;40925;45.666;18.994;2022-11-21T01:04:34;55.70;;;25.33;;
55025;SDS011;40925;45.666;18.994;2022-11-21T01:07:00;57.40;;;25.30;;
55025;SDS011;40925;45.666;18.994;2022-11-21T01:09:29;52.83;;;23.98;;
55025;SDS011;40925;45.666;18.994;2022-11-21T01:11:58;52.78;;;25.50;;
55025;SDS011;40925;45.666;18.994;2022-11-21T01:14:25;53.65;;;25.05;;
55025;SDS011;40925;45.666;18.994;2022-11-21T01:16:53;49.13;;;24.10;;
55025;SDS011;40925;45.666;18.994;2022-11-21T01:19:19;50.25;;;23.85;;
55025;SDS011;40925;45.666;18.994;2022-11-21T01:21:45;52.08;;;24.40;;
55025;SDS011;40925;45.666;18.994;2022-11-21T01:24:12;53.17;;;24.40;;
55025;SDS011;40925;45.666;18.994;2022-11-21T01:26:42;48.72;;;23.95;;
55025;SDS011;40925;45.666;18.994;2022-11-21T01:29:09;51.08;;;24.27;;
55025;SDS011;40925;45.666;18.994;2022-11-21T01:31:35;53.90;;;24.55;;
55025;SDS011;40925;45.666;18.994;2022-11-21T01:34:01;49.22;;;23.35;;
55025;SDS011;40925;45.666;18.994;2022-11-21T01:36:28;50.22;;;23.30;;
55025;SDS011;40925;45.666;18.994;2022-11-21T01:38:59;51.92;;;22.98;;
55025;SDS011;40925;45.666;18.994;2022-11-21T01:41:31;50.65;;;23.70;;
55025;SDS011;40925;45.666;18.994;2022-11-21T01:43:58;50.45;;;22.88;;
55025;SDS011;40925;45.666;18.994;2022-11-21T01:46:25;44.67;;;22.38;;
55025;SDS011;40925;45.666;18.994;2022-11-21T01:49:02;48.10;;;23.38;;
55025;SDS011;40925;45.666;18.994;2022-11-21T01:54:20;51.17;;;22.80;;
55025;SDS011;40925;45.666;18.994;2022-11-21T01:59:38;43.38;;;21.60;;
55025;SDS011;40925;45.666;18.994;2022-11-21T02:02:15;47.22;;;22.65;;
55025;SDS011;40925;45.666;18.994;2022-11-21T02:04:50;44.42;;;22.10;;
55025;SDS011;40925;45.666;18.994;2022-11-21T02:07:22;43.90;;;21.38;;
55025;SDS011;40925;45.666;18.994;2022-11-21T02:12:28;47.42;;;21.50;;
55025;SDS011;40925;45.666;18.994;2022-11-21T02:15:12;46.63;;;21.88;;
55025;SDS011;40925;45.666;18.994;2022-11-21T02:17:42;49.75;;;22.98;;
55025;SDS011;40925;45.666;18.994;2022-11-21T02:20:11;46.85;;;21.63;;
55025;SDS011;40925;45.666;18.994;2022-11-21T02:22:59;48.42;;;21.92;;
55025;SDS011;40925;45.666;18.994;2022-11-21T02:25:42;48.33;;;22.98;;
55025;SDS011;40925;45.666;18.994;2022-11-21T02:28:12;51.65;;;22.75;;
55025;SDS011;40925;45.666;18.994;2022-11-21T02:30:41;49.30;;;23.15;;
55025;SDS011;40925;45.666;18.994;2022-11-21T02:33:07;44.72;;;21.30;;
55025;SDS011;40925;45.666;18.994;2022-11-21T02:35:34;45.88;;;21.67;;
55025;SDS011;40925;45.666;18.994;2022-11-21T02:38:01;50.22;;;23.52;;
55025;SDS011;40925;45.666;18.994;2022-11-21T02:40:31;45.95;;;22.25;;
55025;SDS011;40925;45.666;18.994;2022-11-21T02:45:36;49.88;;;23.50;;
55025;SDS011;40925;45.666;18.994;2022-11-21T02:48:05;47.58;;;23.08;;
55025;SDS011;40925;45.666;18.994;2022-11-21T02:50:31;45.78;;;20.88;;
55025;SDS011;40925;45.666;18.994;2022-11-21T02:53:05;48.17;;;21.17;;
55025;SDS011;40925;45.666;18.994;2022-11-21T02:55:32;44.88;;;20.65;;
55025;SDS011;40925;45.666;18.994;2022-11-21T02:57:58;47.83;;;22.10;;
55025;SDS011;40925;45.666;18.994;2022-11-21T03:00:24;45.25;;;20.90;;
55025;SDS011;40925;45.666;18.994;2022-11-21T03:02:50;49.45;;;21.48;;
55025;SDS011;40925;45.666;18.994;2022-11-21T03:05:22;47.15;;;20.77;;
55025;SDS011;40925;45.666;18.994;2022-11-21T03:07:54;49.58;;;21.20;;
55025;SDS011;40925;45.666;18.994;2022-11-21T03:10:23;47.30;;;21.55;;
55025;SDS011;40925;45.666;18.994;2022-11-21T03:12:54;48.83;;;21.05;;
55025;SDS011;40925;45.666;18.994;2022-11-21T03:15:28;45.70;;;19.75;;
55025;SDS011;40925;45.666;18.994;2022-11-21T03:17:59;46.25;;;20.52;;
55025;SDS011;40925;45.666;18.994;2022-11-21T03:20:34;47.58;;;20.58;;
55025;SDS011;40925;45.666;18.994;2022-11-21T03:22:59;47.63;;;20.25;;
55025;SDS011;40925;45.666;18.994;2022-11-21T03:25:25;50.38;;;21.65;;
55025;SDS011;40925;45.666;18.994;2022-11-21T03:27:51;48.03;;;21.05;;
55025;SDS011;40925;45.666;18.994;2022-11-21T03:30:21;49.15;;;21.83;;
55025;SDS011;40925;45.666;18.994;2022-11-21T03:32:48;50.88;;;20.83;;
55025;SDS011;40925;45.666;18.994;2022-11-21T03:35:14;46.58;;;20.48;;
55025;SDS011;40925;45.666;18.994;2022-11-21T03:37:40;47.67;;;20.67;;
55025;SDS011;40925;45.666;18.994;2022-11-21T03:40:06;46.13;;;20.33;;
55025;SDS011;40925;45.666;18.994;2022-11-21T03:42:32;47.13;;;20.58;;
55025;SDS011;40925;45.666;18.994;2022-11-21T03:44:58;47.05;;;19.95;;
55025;SDS011;40925;45.666;18.994;2022-11-21T03:47:26;49.50;;;21.27;;
55025;SDS011;40925;45.666;18.994;2022-11-21T03:49:55;46.60;;;19.98;;
55025;SDS011;40925;45.666;18.994;2022-11-21T03:52:27;46.58;;;20.63;;
55025;SDS011;40925;45.666;18.994;2022-11-21T03:54:58;49.00;;;21.35;;
55025;SDS011;40925;45.666;18.994;2022-11-21T03:57:30;48.00;;;20.55;;
55025;SDS011;40925;45.666;18.994;2022-11-21T04:00:01;44.08;;;20.08;;
55025;SDS011;40925;45.666;18.994;2022-11-21T04:02:32;46.05;;;20.73;;
55025;SDS011;40925;45.666;18.994;2022-11-21T04:05:03;45.38;;;19.83;;
55025;SDS011;40925;45.666;18.994;2022-11-21T04:07:35;43.13;;;19.77;;
55025;SDS011;40925;45.666;18.994;2022-11-21T04:10:06;43.55;;;20.13;;
55025;SDS011;40925;45.666;18.994;2022-11-21T04:12:38;41.40;;;18.10;;
55025;SDS011;40925;45.666;18.994;2022-11-21T04:15:10;46.72;;;18.92;;
55025;SDS011;40925;45.666;18.994;2022-11-21T04:17:41;45.13;;;19.63;;
55025;SDS011;40925;45.666;18.994;2022-11-21T04:20:11;41.35;;;17.83;;
55025;SDS011;40925;45.666;18.994;2022-11-21T04:22:46;42.13;;;18.45;;
55025;SDS011;40925;45.666;18.994;2022-11-21T04:25:17;40.45;;;17.10;;
55025;SDS011;40925;45.666;18.994;2022-11-21T04:27:48;102.78;;;42.05;;
55025;SDS011;40925;45.666;18.994;2022-11-21T04:30:23;67.68;;;31.88;;
55025;SDS011;40925;45.666;18.994;2022-11-21T04:32:55;54.17;;;24.17;;
55025;SDS011;40925;45.666;18.994;2022-11-21T04:35:27;52.60;;;23.55;;
55025;SDS011;40925;45.666;18.994;2022-11-21T04:37:55;61.13;;;27.92;;
55025;SDS011;40925;45.666;18.994;2022-11-21T04:40:25;56.40;;;26.02;;
55025;SDS011;40925;45.666;18.994;2022-11-21T04:42:57;44.22;;;20.50;;
55025;SDS011;40925;45.666;18.994;2022-11-21T04:45:28;55.67;;;26.63;;
55025;SDS011;40925;45.666;18.994;2022-11-21T04:48:00;49.08;;;20.55;;
55025;SDS011;40925;45.666;18.994;2022-11-21T04:50:31;42.65;;;18.88;;
55025;SDS011;40925;45.666;18.994;2022-11-21T04:53:03;44.78;;;20.38;;
55025;SDS011;40925;45.666;18.994;2022-11-21T04:55:34;47.83;;;21.45;;
55025;SDS011;40925;45.666;18.994;2022-11-21T04:58:03;53.78;;;21.88;;
55025;SDS011;40925;45.666;18.994;2022-11-21T05:00:35;57.38;;;23.75;;
55025;SDS011;40925;45.666;18.994;2022-11-21T05:03:06;59.08;;;24.25;;
55025;SDS011;40925;45.666;18.994;2022-11-21T05:05:40;78.85;;;29.55;;
55025;SDS011;40925;45.666;18.994;2022-11-21T05:08:12;55.88;;;22.35;;
55025;SDS011;40925;45.666;18.994;2022-11-21T05:10:44;111.65;;;42.83;;
55025;SDS011;40925;45.666;18.994;2022-11-21T05:13:32;95.45;;;37.15;;
55025;SDS011;40925;45.666;18.994;2022-11-21T05:16:03;83.40;;;34.55;;
55025;SDS011;40925;45.666;18.994;2022-11-21T05:18:34;67.70;;;25.60;;
55025;SDS011;40925;45.666;18.994;2022-11-21T05:21:05;66.07;;;26.90;;
55025;SDS011;40925;45.666;18.994;2022-11-21T05:23:37;80.13;;;30.77;;
55025;SDS011;40925;45.666;18.994;2022-11-21T05:26:07;57.97;;;22.10;;
55025;SDS011;40925;45.666;18.994;2022-11-21T05:28:39;60.92;;;23.88;;
55025;SDS011;40925;45.666;18.994;2022-11-21T05:31:09;72.60;;;28.92;;
55025;SDS011;40925;45.666;18.994;2022-11-21T05:33:39;64.65;;;25.75;;
55025;SDS011;40925;45.666;18.994;2022-11-21T05:36:08;59.70;;;22.45;;
55025;SDS011;40925;45.666;18.994;2022-11-21T05:38:38;84.55;;;34.55;;
55025;SDS011;40925;45.666;18.994;2022-11-21T05:41:09;53.67;;;20.23;;
55025;SDS011;40925;45.666;18.994;2022-11-21T05:43:41;55.25;;;21.45;;
55025;SDS011;40925;45.666;18.994;2022-11-21T05:46:13;61.25;;;24.85;;
55025;SDS011;40925;45.666;18.994;2022-11-21T05:48:46;47.38;;;18.75;;
55025;SDS011;40925;45.666;18.994;2022-11-21T05:51:19;43.50;;;16.73;;
55025;SDS011;40925;45.666;18.994;2022-11-21T05:53:50;65.43;;;25.63;;
55025;SDS011;40925;45.666;18.994;2022-11-21T05:56:22;53.63;;;21.20;;
55025;SDS011;40925;45.666;18.994;2022-11-21T05:58:53;66.78;;;26.25;;
55025;SDS011;40925;45.666;18.994;2022-11-21T06:01:22;71.82;;;30.60;;
55025;SDS011;40925;45.666;18.994;2022-11-21T06:04:23;53.65;;;19.63;;
55025;SDS011;40925;45.666;18.994;2022-11-21T06:06:55;70.75;;;29.20;;
55025;SDS011;40925;45.666;18.994;2022-11-21T06:09:25;54.85;;;22.27;;
55025;SDS011;40925;45.666;18.994;2022-11-21T06:11:59;69.72;;;30.98;;
55025;SDS011;40925;45.666;18.994;2022-11-21T06:14:29;63.33;;;25.00;;
55025;SDS011;40925;45.666;18.994;2022-11-21T06:16:57;58.35;;;23.75;;
55025;SDS011;40925;45.666;18.994;2022-11-21T06:19:29;61.60;;;26.65;;
55025;SDS011;40925;45.666;18.994;2022-11-21T06:22:00;61.83;;;25.48;;
55025;SDS011;40925;45.666;18.994;2022-11-21T06:24:31;52.53;;;20.60;;
55025;SDS011;40925;45.666;18.994;2022-11-21T06:27:02;46.40;;;18.17;;
55025;SDS011;40925;45.666;18.994;2022-11-21T06:29:33;42.85;;;18.60;;
55025;SDS011;40925;45.666;18.994;2022-11-21T06:32:04;38.95;;;15.32;;
55025;SDS011;40925;45.666;18.994;2022-11-21T06:34:35;47.22;;;18.83;;
55025;SDS011;40925;45.666;18.994;2022-11-21T06:37:01;40.60;;;17.05;;
55025;SDS011;40925;45.666;18.994;2022-11-21T06:39:33;44.33;;;18.55;;
55025;SDS011;40925;45.666;18.994;2022-11-21T06:42:04;62.70;;;24.70;;
55025;SDS011;40925;45.666;18.994;2022-11-21T06:44:34;39.55;;;16.52;;
55025;SDS011;40925;45.666;18.994;2022-11-21T06:47:03;39.50;;;16.90;;
55025;SDS011;40925;45.666;18.994;2022-11-21T06:49:29;40.53;;;16.42;;
55025;SDS011;40925;45.666;18.994;2022-11-21T06:51:56;43.45;;;17.38;;
55025;SDS011;40925;45.666;18.994;2022-11-21T06:54:22;47.85;;;19.42;;
55025;SDS011;40925;45.666;18.994;2022-11-21T06:56:50;40.38;;;15.77;;
55025;SDS011;40925;45.666;18.994;2022-11-21T06:59:22;36.85;;;15.10;;
55025;SDS011;40925;45.666;18.994;2022-11-21T07:01:53;34.33;;;13.98;;
55025;SDS011;40925;45.666;18.994;2022-11-21T07:04:25;36.22;;;14.63;;
55025;SDS011;40925;45.666;18.994;2022-11-21T07:06:54;50.17;;;21.65;;
55025;SDS011;40925;45.666;18.994;2022-11-21T07:09:20;51.50;;;22.42;;
55025;SDS011;40925;45.666;18.994;2022-11-21T07:11:46;42.92;;;18.08;;
55025;SDS011;40925;45.666;18.994;2022-11-21T07:14:16;55.20;;;23.42;;
55025;SDS011;40925;45.666;18.994;2022-11-21T07:16:43;45.03;;;20.48;;
55025;SDS011;40925;45.666;18.994;2022-11-21T07:19:08;105.28;;;44.92;;
55025;SDS011;40925;45.666;18.994;2022-11-21T07:21:34;45.22;;;22.75;;
55025;SDS011;40925;45.666;18.994;2022-11-21T07:24:00;42.00;;;20.02;;
55025;SDS011;40925;45.666;18.994;2022-11-21T07:26:28;57.47;;;26.05;;
55025;SDS011;40925;45.666;18.994;2022-11-21T07:28:55;36.45;;;16.98;;
55025;SDS011;40925;45.666;18.994;2022-11-21T07:31:25;29.60;;;13.48;;
55025;SDS011;40925;45.666;18.994;2022-11-21T07:33:53;27.45;;;12.77;;
55025;SDS011;40925;45.666;18.994;2022-11-21T07:36:19;26.40;;;13.02;;
55025;SDS011;40925;45.666;18.994;2022-11-21T07:38:48;27.48;;;11.77;;
55025;SDS011;40925;45.666;18.994;2022-11-21T07:41:17;29.65;;;13.27;;
55025;SDS011;40925;45.666;18.994;2022-11-21T07:43:45;28.00;;;12.35;;
55025;SDS011;40925;45.666;18.994;2022-11-21T07:46:15;29.48;;;13.73;;
55025;SDS011;40925;45.666;18.994;2022-11-21T07:48:41;26.17;;;13.05;;
55025;SDS011;40925;45.666;18.994;2022-11-21T07:51:08;27.95;;;14.68;;
55025;SDS011;40925;45.666;18.994;2022-11-21T07:53:37;25.15;;;13.20;;
55025;SDS011;40925;45.666;18.994;2022-11-21T07:56:06;31.35;;;14.55;;
55025;SDS011;40925;45.666;18.994;2022-11-21T07:58:35;33.35;;;16.17;;
55025;SDS011;40925;45.666;18.994;2022-11-21T08:01:02;38.95;;;18.20;;
55025;SDS011;40925;45.666;18.994;2022-11-21T08:03:31;38.70;;;14.30;;
55025;SDS011;40925;45.666;18.994;2022-11-21T08:06:00;40.67;;;19.25;;
55025;SDS011;40925;45.666;18.994;2022-11-21T08:08:28;35.38;;;16.27;;
55025;SDS011;40925;45.666;18.994;2022-11-21T08:10:57;33.45;;;14.73;;
55025;SDS011;40925;45.666;18.994;2022-11-21T08:13:31;38.85;;;18.92;;
55025;SDS011;40925;45.666;18.994;2022-11-21T08:15:58;29.35;;;14.60;;
55025;SDS011;40925;45.666;18.994;2022-11-21T08:18:26;40.47;;;19.25;;
55025;SDS011;40925;45.666;18.994;2022-11-21T08:20:55;31.73;;;14.88;;
55025;SDS011;40925;45.666;18.994;2022-11-21T08:23:27;45.38;;;22.35;;
55025;SDS011;40925;45.666;18.994;2022-11-21T08:25:53;39.67;;;19.35;;
55025;SDS011;40925;45.666;18.994;2022-11-21T08:28:26;30.58;;;15.65;;
55025;SDS011;40925;45.666;18.994;2022-11-21T08:30:53;38.17;;;20.05;;
55025;SDS011;40925;45.666;18.994;2022-11-21T08:33:19;44.67;;;23.48;;
55025;SDS011;40925;45.666;18.994;2022-11-21T08:35:46;53.85;;;28.08;;
55025;SDS011;40925;45.666;18.994;2022-11-21T08:38:12;33.42;;;18.13;;
55025;SDS011;40925;45.666;18.994;2022-11-21T08:40:38;29.48;;;15.82;;
55025;SDS011;40925;45.666;18.994;2022-11-21T08:43:07;32.63;;;15.90;;
55025;SDS011;40925;45.666;18.994;2022-11-21T08:45:37;32.03;;;16.98;;
55025;SDS011;40925;45.666;18.994;2022-11-21T08:48:07;40.17;;;20.17;;
55025;SDS011;40925;45.666;18.994;2022-11-21T08:50:37;24.77;;;12.65;;
55025;SDS011;40925;45.666;18.994;2022-11-21T08:53:03;36.55;;;20.55;;
55025;SDS011;40925;45.666;18.994;2022-11-21T08:55:29;34.45;;;17.88;;
55025;SDS011;40925;45.666;18.994;2022-11-21T08:57:58;35.33;;;17.05;;
55025;SDS011;40925;45.666;18.994;2022-11-21T09:05:15;32.03;;;15.60;;
55025;SDS011;40925;45.666;18.994;2022-11-21T09:07:42;33.45;;;16.25;;
55025;SDS011;40925;45.666;18.994;2022-11-21T09:10:09;30.70;;;15.45;;
55025;SDS011;40925;45.666;18.994;2022-11-21T09:12:35;28.20;;;14.18;;
55025;SDS011;40925;45.666;18.994;2022-11-21T09:28:06;33.28;;;17.08;;
55025;SDS011;40925;45.666;18.994;2022-11-21T09:30:35;30.75;;;16.27;;
55025;SDS011;40925;45.666;18.994;2022-11-21T09:33:02;36.40;;;20.38;;
55025;SDS011;40925;45.666;18.994;2022-11-21T09:35:30;35.63;;;18.27;;
55025;SDS011;40925;45.666;18.994;2022-11-21T09:37:57;33.83;;;17.88;;
55025;SDS011;40925;45.666;18.994;2022-11-21T09:48:11;27.80;;;15.50;;
55025;SDS011;40925;45.666;18.994;2022-11-21T09:50:47;32.63;;;16.00;;
55025;SDS011;40925;45.666;18.994;2022-11-21T09:53:18;29.95;;;16.30;;
55025;SDS011;40925;45.666;18.994;2022-11-21T09:55:53;23.75;;;14.18;;
55025;SDS011;40925;45.666;18.994;2022-11-21T10:00:52;25.60;;;14.07;;
55025;SDS011;40925;45.666;18.994;2022-11-21T10:03:19;26.85;;;15.05;;
55025;SDS011;40925;45.666;18.994;2022-11-21T10:05:52;25.65;;;14.52;;
55025;SDS011;40925;45.666;18.994;2022-11-21T10:14:40;17.23;;;10.60;;
55025;SDS011;40925;45.666;18.994;2022-11-21T10:25:29;20.55;;;11.95;;
55025;SDS011;40925;45.666;18.994;2022-11-21T10:28:03;16.63;;;9.55;;
55025;SDS011;40925;45.666;18.994;2022-11-21T10:30:32;19.73;;;11.00;;
55025;SDS011;40925;45.666;18.994;2022-11-21T10:33:02;17.58;;;11.15;;
55025;SDS011;40925;45.666;18.994;2022-11-21T10:35:43;15.50;;;9.27;;
55025;SDS011;40925;45.666;18.994;2022-11-21T10:38:15;16.10;;;10.02;;
55025;SDS011;40925;45.666;18.994;2022-11-21T10:40:50;16.45;;;10.13;;
55025;SDS011;40925;45.666;18.994;2022-11-21T10:46:07;16.35;;;9.95;;
55025;SDS011;40925;45.666;18.994;2022-11-21T10:48:34;20.25;;;11.98;;
55025;SDS011;40925;45.666;18.994;2022-11-21T10:51:18;16.27;;;9.75;;
55025;SDS011;40925;45.666;18.994;2022-11-21T10:54:05;16.33;;;10.45;;
55025;SDS011;40925;45.666;18.994;2022-11-21T10:56:51;17.83;;;11.13;;
55025;SDS011;40925;45.666;18.994;2022-11-21T10:59:26;19.50;;;11.82;;
55025;SDS011;40925;45.666;18.994;2022-11-21T11:04:38;20.63;;;13.43;;
55025;SDS011;40925;45.666;18.994;2022-11-21T11:10:21;28.63;;;16.58;;
55025;SDS011;40925;45.666;18.994;2022-11-21T11:12:48;22.92;;;13.07;;
55025;SDS011;40925;45.666;18.994;2022-11-21T11:15:35;17.92;;;9.90;;
55025;SDS011;40925;45.666;18.994;2022-11-21T11:18:03;18.33;;;10.65;;
55025;SDS011;40925;45.666;18.994;2022-11-21T11:20:32;15.75;;;10.25;;
55025;SDS011;40925;45.666;18.994;2022-11-21T11:25:53;17.17;;;10.43;;
55025;SDS011;40925;45.666;18.994;2022-11-21T11:28:25;20.25;;;11.95;;
55025;SDS011;40925;45.666;18.994;2022-11-21T11:30:58;20.95;;;11.45;;
55025;SDS011;40925;45.666;18.994;2022-11-21T11:38:33;22.92;;;13.70;;
55025;SDS011;40925;45.666;18.994;2022-11-21T11:40:59;23.70;;;14.55;;
55025;SDS011;40925;45.666;18.994;2022-11-21T11:49:37;44.00;;;31.20;;
55025;SDS011;40925;45.666;18.994;2022-11-21T11:52:26;24.00;;;13.85;;
55025;SDS011;40925;45.666;18.994;2022-11-21T11:54:57;29.23;;;17.33;;
55025;SDS011;40925;45.666;18.994;2022-11-21T11:57:29;18.95;;;10.73;;
55025;SDS011;40925;45.666;18.994;2022-11-21T12:00:04;24.35;;;14.57;;
55025;SDS011;40925;45.666;18.994;2022-11-21T12:03:01;23.48;;;12.90;;
55025;SDS011;40925;45.666;18.994;2022-11-21T12:06:11;24.25;;;14.68;;
55025;SDS011;40925;45.666;18.994;2022-11-21T12:11:31;20.13;;;12.82;;
55025;SDS011;40925;45.666;18.994;2022-11-21T12:17:26;29.63;;;17.48;;
55025;SDS011;40925;45.666;18.994;2022-11-21T12:20:29;41.60;;;20.02;;
55025;SDS011;40925;45.666;18.994;2022-11-21T12:23:01;23.17;;;12.15;;
55025;SDS011;40925;45.666;18.994;2022-11-21T12:25:36;31.00;;;18.50;;
55025;SDS011;40925;45.666;18.994;2022-11-21T12:28:34;16.70;;;10.07;;
55025;SDS011;40925;45.666;18.994;2022-11-21T12:48:56;19.75;;;11.40;;
55025;SDS011;40925;45.666;18.994;2022-11-21T12:58:22;17.88;;;12.57;;
55025;SDS011;40925;45.666;18.994;2022-11-21T13:03:58;18.50;;;11.40;;
55025;SDS011;40925;45.666;18.994;2022-11-21T13:25:33;10.63;;;8.13;;
55025;SDS011;40925;45.666;18.994;2022-11-21T13:49:48;16.42;;;10.45;;
55025;SDS011;40925;45.666;18.994;2022-11-21T13:55:34;32.03;;;20.02;;
55025;SDS011;40925;45.666;18.994;2022-11-21T14:04:03;29.15;;;18.23;;
55025;SDS011;40925;45.666;18.994;2022-11-21T14:06:44;26.75;;;15.65;;
55025;SDS011;40925;45.666;18.994;2022-11-21T14:16:50;35.60;;;18.20;;
55025;SDS011;40925;45.666;18.994;2022-11-21T14:19:32;47.75;;;19.38;;
55025;SDS011;40925;45.666;18.994;2022-11-21T14:21:59;50.90;;;22.23;;
55025;SDS011;40925;45.666;18.994;2022-11-21T14:24:25;28.33;;;15.60;;
55025;SDS011;40925;45.666;18.994;2022-11-21T14:26:52;22.55;;;13.23;;
55025;SDS011;40925;45.666;18.994;2022-11-21T14:29:37;35.85;;;18.15;;
55025;SDS011;40925;45.666;18.994;2022-11-21T14:32:14;34.55;;;19.35;;
55025;SDS011;40925;45.666;18.994;2022-11-21T14:37:06;76.00;;;32.47;;
55025;SDS011;40925;45.666;18.994;2022-11-21T14:39:33;66.45;;;29.08;;
55025;SDS011;40925;45.666;18.994;2022-11-21T14:42:03;56.60;;;27.73;;
55025;SDS011;40925;45.666;18.994;2022-11-21T14:44:35;58.30;;;30.45;;
55025;SDS011;40925;45.666;18.994;2022-11-21T14:49:53;55.03;;;28.40;;
55025;SDS011;40925;45.666;18.994;2022-11-21T14:52:22;35.60;;;20.00;;
55025;SDS011;40925;45.666;18.994;2022-11-21T14:54:53;43.72;;;25.27;;
55025;SDS011;40925;45.666;18.994;2022-11-21T14:57:23;56.22;;;34.22;;
55025;SDS011;40925;45.666;18.994;2022-11-21T14:59:51;49.53;;;31.02;;
55025;SDS011;40925;45.666;18.994;2022-11-21T15:02:19;56.03;;;35.40;;
55025;SDS011;40925;45.666;18.994;2022-11-21T15:04:48;68.40;;;40.90;;
55025;SDS011;40925;45.666;18.994;2022-11-21T15:07:16;91.32;;;54.28;;
55025;SDS011;40925;45.666;18.994;2022-11-21T15:09:46;157.75;;;93.35;;
55025;SDS011;40925;45.666;18.994;2022-11-21T15:12:18;131.77;;;80.35;;
55025;SDS011;40925;45.666;18.994;2022-11-21T15:14:56;155.90;;;92.32;;
55025;SDS011;40925;45.666;18.994;2022-11-21T15:17:28;130.02;;;79.68;;
55025;SDS011;40925;45.666;18.994;2022-11-21T15:20:03;125.97;;;75.55;;
55025;SDS011;40925;45.666;18.994;2022-11-21T15:22:36;120.93;;;76.32;;
55025;SDS011;40925;45.666;18.994;2022-11-21T15:25:13;104.57;;;64.43;;
55025;SDS011;40925;45.666;18.994;2022-11-21T15:27:45;157.80;;;88.65;;
55025;SDS011;40925;45.666;18.994;2022-11-21T15:38:00;200.73;;;111.57;;
55025;SDS011;40925;45.666;18.994;2022-11-21T15:40:26;172.85;;;99.72;;
55025;SDS011;40925;45.666;18.994;2022-11-21T15:42:52;162.63;;;89.80;;
55025;SDS011;40925;45.666;18.994;2022-11-21T15:45:20;215.20;;;119.25;;
55025;SDS011;40925;45.666;18.994;2022-11-21T15:47:50;190.57;;;102.80;;
55025;SDS011;40925;45.666;18.994;2022-11-21T15:50:17;218.35;;;111.88;;
55025;SDS011;40925;45.666;18.994;2022-11-21T15:52:46;177.10;;;93.40;;
55025;SDS011;40925;45.666;18.994;2022-11-21T15:55:17;153.43;;;84.18;;
55025;SDS011;40925;45.666;18.994;2022-11-21T15:57:44;136.60;;;74.38;;
55025;SDS011;40925;45.666;18.994;2022-11-21T16:00:10;148.93;;;85.03;;
55025;SDS011;40925;45.666;18.994;2022-11-21T16:02:37;165.50;;;100.28;;
55025;SDS011;40925;45.666;18.994;2022-11-21T16:05:03;192.35;;;114.55;;
55025;SDS011;40925;45.666;18.994;2022-11-21T16:07:29;174.13;;;101.28;;
55025;SDS011;40925;45.666;18.994;2022-11-21T16:09:55;298.70;;;149.30;;
55025;SDS011;40925;45.666;18.994;2022-11-21T16:12:21;197.45;;;101.65;;
55025;SDS011;40925;45.666;18.994;2022-11-21T16:14:47;188.98;;;99.43;;
55025;SDS011;40925;45.666;18.994;2022-11-21T16:17:13;144.45;;;78.22;;
55025;SDS011;40925;45.666;18.994;2022-11-21T16:19:39;151.30;;;81.22;;
55025;SDS011;40925;45.666;18.994;2022-11-21T16:22:05;131.20;;;69.43;;
55025;SDS011;40925;45.666;18.994;2022-11-21T16:24:31;146.27;;;73.15;;
55025;SDS011;40925;45.666;18.994;2022-11-21T16:26:57;125.72;;;67.45;;
55025;SDS011;40925;45.666;18.994;2022-11-21T16:29:23;129.90;;;71.60;;
55025;SDS011;40925;45.666;18.994;2022-11-21T16:31:49;95.40;;;53.38;;
55025;SDS011;40925;45.666;18.994;2022-11-21T16:34:18;83.40;;;47.30;;
55025;SDS011;40925;45.666;18.994;2022-11-21T16:36:44;102.13;;;57.40;;
55025;SDS011;40925;45.666;18.994;2022-11-21T16:39:10;94.32;;;49.92;;
55025;SDS011;40925;45.666;18.994;2022-11-21T16:41:36;93.50;;;52.55;;
55025;SDS011;40925;45.666;18.994;2022-11-21T16:44:03;75.25;;;42.70;;
55025;SDS011;40925;45.666;18.994;2022-11-21T16:46:34;78.43;;;43.83;;
55025;SDS011;40925;45.666;18.994;2022-11-21T16:49:07;93.32;;;50.65;;
55025;SDS011;40925;45.666;18.994;2022-11-21T16:51:33;90.10;;;49.22;;
55025;SDS011;40925;45.666;18.994;2022-11-21T16:53:59;102.47;;;53.85;;
55025;SDS011;40925;45.666;18.994;2022-11-21T16:56:25;101.03;;;53.30;;
55025;SDS011;40925;45.666;18.994;2022-11-21T16:58:51;334.80;;;129.45;;
55025;SDS011;40925;45.666;18.994;2022-11-21T17:01:18;268.13;;;115.75;;
55025;SDS011;40925;45.666;18.994;2022-11-21T17:03:46;370.40;;;150.50;;
55025;SDS011;40925;45.666;18.994;2022-11-21T17:06:16;398.33;;;149.43;;
55025;SDS011;40925;45.666;18.994;2022-11-21T17:08:45;402.85;;;147.60;;
55025;SDS011;40925;45.666;18.994;2022-11-21T17:11:21;362.42;;;133.23;;
55025;SDS011;40925;45.666;18.994;2022-11-21T17:13:52;338.77;;;129.27;;
55025;SDS011;40925;45.666;18.994;2022-11-21T17:16:20;285.25;;;114.03;;
55025;SDS011;40925;45.666;18.994;2022-11-21T17:18:48;215.27;;;86.97;;
55025;SDS011;40925;45.666;18.994;2022-11-21T17:21:21;172.90;;;68.82;;
55025;SDS011;40925;45.666;18.994;2022-11-21T17:23:48;203.30;;;83.78;;